HAZ1139 ZUUU-ZSCN
Flight info
| Callsign | HAZ1139 |
|---|---|
| Flight time | 1h 40m |
| Altitude | 37100 |
| Route | UBRAB B213 WHA R343 SAGUD W50 XSH W105 LAPEN |
| Aircraft | B738/M-SDE2E3FGHIRWXY/LB1 |
Departure
| Time | 2026-05-09 00:06 |
|---|---|
| Airport | Chengdu Shuangliu International Airport (ZUUU) |
Arrival
| Time | 2026-05-09 01:46 |
|---|---|
| Airport | Nanchang Changbei International Airport (ZSCN) |
| Time | Latitude | Longitude | Altitude | Speed | Heading |
|---|---|---|---|---|---|
| 2026-05-08 23:35 | 30.57648 | 103.95169 | 1636 ft | 0 kts | 111° |
| 2026-05-08 23:51 | 30.57649 | 103.95164 | 1636 ft | 2 kts | 112° |
| 2026-05-08 23:52 | 30.57655 | 103.95149 | 1636 ft | 2 kts | 111° |
| 2026-05-08 23:52 | 30.57660 | 103.95132 | 1636 ft | 2 kts | 112° |
| 2026-05-08 23:52 | 30.57666 | 103.95116 | 1636 ft | 2 kts | 111° |
| 2026-05-08 23:52 | 30.57672 | 103.95100 | 1636 ft | 2 kts | 111° |
| 2026-05-08 23:53 | 30.57677 | 103.95084 | 1636 ft | 2 kts | 111° |
| 2026-05-08 23:53 | 30.57683 | 103.95068 | 1636 ft | 2 kts | 115° |
| 2026-05-08 23:53 | 30.57692 | 103.95053 | 1636 ft | 2 kts | 138° |
| 2026-05-08 23:53 | 30.57704 | 103.95043 | 1636 ft | 2 kts | 155° |
| 2026-05-08 23:54 | 30.57718 | 103.95039 | 1636 ft | 2 kts | 173° |
| 2026-05-08 23:54 | 30.57733 | 103.95039 | 1636 ft | 2 kts | 192° |
| 2026-05-08 23:54 | 30.57741 | 103.95041 | 1636 ft | 1 kts | 202° |
| 2026-05-08 23:55 | 30.57746 | 103.95043 | 1636 ft | 0 kts | 202° |
| 2026-05-08 23:56 | 30.57741 | 103.95041 | 1636 ft | 1 kts | 201° |
| 2026-05-08 23:56 | 30.57727 | 103.95035 | 1636 ft | 2 kts | 201° |
| 2026-05-08 23:57 | 30.57699 | 103.95022 | 1636 ft | 5 kts | 201° |
| 2026-05-08 23:57 | 30.57656 | 103.95002 | 1636 ft | 8 kts | 201° |
| 2026-05-08 23:57 | 30.57599 | 103.94975 | 1636 ft | 8 kts | 202° |
| 2026-05-08 23:57 | 30.57560 | 103.94933 | 1636 ft | 7 kts | 253° |
| 2026-05-08 23:58 | 30.57553 | 103.94875 | 1636 ft | 6 kts | 245° |
| 2026-05-08 23:58 | 30.57524 | 103.94834 | 1636 ft | 6 kts | 244° |
| 2026-05-08 23:58 | 30.57522 | 103.94787 | 1636 ft | 5 kts | 259° |
| 2026-05-08 23:58 | 30.57502 | 103.94752 | 1636 ft | 5 kts | 213° |
| 2026-05-08 23:59 | 30.57471 | 103.94737 | 1636 ft | 4 kts | 202° |
| 2026-05-08 23:59 | 30.57425 | 103.94715 | 1636 ft | 9 kts | 201° |
| 2026-05-08 23:59 | 30.57341 | 103.94677 | 1636 ft | 15 kts | 204° |
| 2026-05-08 23:59 | 30.57237 | 103.94627 | 1636 ft | 16 kts | 202° |
| 2026-05-09 00:00 | 30.57134 | 103.94579 | 1636 ft | 15 kts | 203° |
| 2026-05-09 00:00 | 30.57037 | 103.94534 | 1636 ft | 14 kts | 201° |
| 2026-05-09 00:00 | 30.56942 | 103.94490 | 1636 ft | 14 kts | 201° |
| 2026-05-09 00:00 | 30.56852 | 103.94448 | 1636 ft | 13 kts | 202° |
| 2026-05-09 00:01 | 30.56765 | 103.94408 | 1636 ft | 13 kts | 202° |
| 2026-05-09 00:01 | 30.56681 | 103.94370 | 1636 ft | 12 kts | 200° |
| 2026-05-09 00:01 | 30.56602 | 103.94332 | 1636 ft | 12 kts | 203° |
| 2026-05-09 00:01 | 30.56526 | 103.94296 | 1636 ft | 11 kts | 202° |
| 2026-05-09 00:02 | 30.56453 | 103.94264 | 1636 ft | 10 kts | 201° |
| 2026-05-09 00:02 | 30.56385 | 103.94231 | 1636 ft | 10 kts | 202° |
| 2026-05-09 00:02 | 30.56322 | 103.94202 | 1636 ft | 8 kts | 206° |
| 2026-05-09 00:02 | 30.56308 | 103.94147 | 1636 ft | 7 kts | 287° |
| 2026-05-09 00:03 | 30.56320 | 103.94109 | 1636 ft | 0 kts | 291° |
| 2026-05-09 00:04 | 30.56321 | 103.94108 | 1636 ft | 1 kts | 291° |
| 2026-05-09 00:04 | 30.56330 | 103.94082 | 1636 ft | 5 kts | 292° |
| 2026-05-09 00:04 | 30.56347 | 103.94036 | 1636 ft | 5 kts | 295° |
| 2026-05-09 00:05 | 30.56378 | 103.94020 | 1636 ft | 5 kts | 5° |
| 2026-05-09 00:05 | 30.56411 | 103.94030 | 1636 ft | 4 kts | 20° |
| 2026-05-09 00:05 | 30.56445 | 103.94045 | 1636 ft | 9 kts | 21° |
| 2026-05-09 00:05 | 30.56647 | 103.94139 | 1636 ft | 63 kts | 21° |
| 2026-05-09 00:06 | 30.57254 | 103.94421 | 1636 ft | 124 kts | 22° |
| 2026-05-09 00:06 | 30.58224 | 103.94869 | 1637 ft | 173 kts | 21° |
| 2026-05-09 00:06 | 30.59420 | 103.95412 | 1972 ft | 189 kts | 21° |
| 2026-05-09 00:06 | 30.60660 | 103.95962 | 2592 ft | 196 kts | 21° |
| 2026-05-09 00:07 | 30.61964 | 103.96530 | 3250 ft | 201 kts | 21° |
| 2026-05-09 00:07 | 30.63306 | 103.97104 | 3551 ft | 219 kts | 22° |
| 2026-05-09 00:07 | 30.64791 | 103.97842 | 3824 ft | 236 kts | 25° |
| 2026-05-09 00:07 | 30.66269 | 103.98687 | 4486 ft | 237 kts | 27° |
| 2026-05-09 00:08 | 30.67745 | 103.99622 | 4973 ft | 244 kts | 29° |
| 2026-05-09 00:08 | 30.69191 | 104.00619 | 5537 ft | 249 kts | 34° |
| 2026-05-09 00:08 | 30.70389 | 104.02153 | 5844 ft | 267 kts | 60° |
| 2026-05-09 00:08 | 30.71193 | 104.04131 | 6420 ft | 273 kts | 66° |
| 2026-05-09 00:09 | 30.71966 | 104.06146 | 7093 ft | 275 kts | 64° |
| 2026-05-09 00:09 | 30.72813 | 104.08124 | 7762 ft | 276 kts | 61° |
| 2026-05-09 00:09 | 30.73725 | 104.10094 | 8496 ft | 277 kts | 60° |
| 2026-05-09 00:09 | 30.74662 | 104.12059 | 9227 ft | 278 kts | 59° |
| 2026-05-09 00:10 | 30.75594 | 104.14004 | 9950 ft | 278 kts | 58° |
| 2026-05-09 00:10 | 30.76790 | 104.15778 | 10497 ft | 283 kts | 37° |
| 2026-05-09 00:10 | 30.78549 | 104.16855 | 10962 ft | 293 kts | 20° |
| 2026-05-09 00:10 | 30.80552 | 104.17590 | 11361 ft | 307 kts | 17° |
| 2026-05-09 00:11 | 30.82656 | 104.18310 | 11762 ft | 320 kts | 17° |
| 2026-05-09 00:11 | 30.84827 | 104.19093 | 12116 ft | 334 kts | 18° |
| 2026-05-09 00:11 | 30.87097 | 104.19960 | 12441 ft | 349 kts | 19° |
| 2026-05-09 00:11 | 30.89432 | 104.20881 | 12793 ft | 362 kts | 19° |
| 2026-05-09 00:12 | 30.91882 | 104.21860 | 13165 ft | 374 kts | 20° |
| 2026-05-09 00:12 | 30.94352 | 104.22851 | 13754 ft | 378 kts | 19° |
| 2026-05-09 00:12 | 30.96877 | 104.23865 | 14251 ft | 386 kts | 20° |
| 2026-05-09 00:12 | 30.99314 | 104.25234 | 14714 ft | 393 kts | 34° |
| 2026-05-09 00:13 | 31.01331 | 104.27366 | 15262 ft | 399 kts | 49° |
| 2026-05-09 00:13 | 31.02843 | 104.30109 | 15720 ft | 409 kts | 63° |
| 2026-05-09 00:13 | 31.03816 | 104.33252 | 16264 ft | 416 kts | 74° |
| 2026-05-09 00:13 | 31.04310 | 104.36618 | 16776 ft | 423 kts | 84° |
| 2026-05-09 00:14 | 31.04397 | 104.40049 | 17264 ft | 430 kts | 90° |
| 2026-05-09 00:14 | 31.04294 | 104.43565 | 17785 ft | 435 kts | 92° |
| 2026-05-09 00:14 | 31.04115 | 104.47082 | 18309 ft | 440 kts | 93° |
| 2026-05-09 00:14 | 31.03920 | 104.50693 | 18817 ft | 445 kts | 93° |
| 2026-05-09 00:15 | 31.03739 | 104.54282 | 19323 ft | 449 kts | 92° |
| 2026-05-09 00:15 | 31.03577 | 104.57940 | 19827 ft | 453 kts | 92° |
| 2026-05-09 00:15 | 31.03433 | 104.61633 | 20250 ft | 459 kts | 91° |
| 2026-05-09 00:15 | 31.03301 | 104.65339 | 20776 ft | 462 kts | 92° |
| 2026-05-09 00:16 | 31.03174 | 104.69091 | 21200 ft | 468 kts | 92° |
| 2026-05-09 00:16 | 31.03050 | 104.72909 | 21667 ft | 472 kts | 91° |
| 2026-05-09 00:16 | 31.02927 | 104.76730 | 22142 ft | 475 kts | 91° |
| 2026-05-09 00:16 | 31.02802 | 104.80634 | 22561 ft | 480 kts | 91° |
| 2026-05-09 00:17 | 31.02676 | 104.84521 | 23008 ft | 484 kts | 92° |
| 2026-05-09 00:17 | 31.02547 | 104.88465 | 23442 ft | 488 kts | 92° |
| 2026-05-09 00:17 | 31.02264 | 104.92375 | 23863 ft | 493 kts | 97° |
| 2026-05-09 00:17 | 31.01676 | 104.96323 | 24286 ft | 496 kts | 103° |
| 2026-05-09 00:18 | 31.00744 | 105.00208 | 24728 ft | 500 kts | 109° |
| 2026-05-09 00:18 | 30.99542 | 105.03992 | 25235 ft | 501 kts | 112° |
| 2026-05-09 00:18 | 30.97093 | 105.10490 | 25986 ft | 506 kts | 115° |
| 2026-05-09 00:19 | 30.95580 | 105.14236 | 26313 ft | 511 kts | 116° |
| 2026-05-09 00:19 | 30.94050 | 105.17964 | 26624 ft | 516 kts | 117° |
| 2026-05-09 00:19 | 30.92493 | 105.21750 | 27056 ft | 518 kts | 116° |
| 2026-05-09 00:19 | 30.90931 | 105.25557 | 27554 ft | 518 kts | 117° |
| 2026-05-09 00:20 | 30.89400 | 105.29311 | 27969 ft | 520 kts | 116° |
| 2026-05-09 00:20 | 30.87917 | 105.33168 | 28382 ft | 522 kts | 114° |
| 2026-05-09 00:20 | 30.86687 | 105.37176 | 28910 ft | 521 kts | 106° |
| 2026-05-09 00:20 | 30.85951 | 105.41275 | 29589 ft | 516 kts | 98° |
| 2026-05-09 00:21 | 30.85729 | 105.45381 | 30242 ft | 512 kts | 89° |
| 2026-05-09 00:21 | 30.85941 | 105.49523 | 30529 ft | 515 kts | 83° |
| 2026-05-09 00:21 | 30.86490 | 105.53689 | 30889 ft | 517 kts | 78° |
| 2026-05-09 00:21 | 30.87245 | 105.57729 | 31217 ft | 519 kts | 75° |
| 2026-05-09 00:22 | 30.88141 | 105.61819 | 31520 ft | 521 kts | 73° |
| 2026-05-09 00:22 | 30.89070 | 105.65797 | 31805 ft | 523 kts | 73° |
| 2026-05-09 00:22 | 30.90041 | 105.69894 | 32075 ft | 526 kts | 73° |
| 2026-05-09 00:22 | 30.91008 | 105.74030 | 32340 ft | 529 kts | 74° |
| 2026-05-09 00:23 | 30.91950 | 105.78168 | 32681 ft | 529 kts | 74° |
| 2026-05-09 00:23 | 30.92868 | 105.82301 | 32931 ft | 532 kts | 75° |
| 2026-05-09 00:23 | 30.93783 | 105.86516 | 33151 ft | 535 kts | 74° |
| 2026-05-09 00:23 | 30.94674 | 105.90694 | 33400 ft | 537 kts | 75° |
| 2026-05-09 00:24 | 30.95459 | 105.94966 | 33716 ft | 539 kts | 79° |
| 2026-05-09 00:24 | 30.95932 | 105.99300 | 34014 ft | 540 kts | 85° |
| 2026-05-09 00:24 | 30.96065 | 106.03685 | 34326 ft | 540 kts | 91° |
| 2026-05-09 00:24 | 30.95858 | 106.08039 | 34634 ft | 540 kts | 97° |
| 2026-05-09 00:25 | 30.95307 | 106.12411 | 34873 ft | 541 kts | 103° |
| 2026-05-09 00:25 | 30.94418 | 106.16695 | 35110 ft | 541 kts | 109° |
| 2026-05-09 00:25 | 30.93269 | 106.20866 | 35384 ft | 540 kts | 113° |
| 2026-05-09 00:25 | 30.92002 | 106.25008 | 35571 ft | 543 kts | 114° |
| 2026-05-09 00:26 | 30.90710 | 106.29188 | 35820 ft | 544 kts | 113° |
| 2026-05-09 00:26 | 30.89417 | 106.33378 | 36044 ft | 544 kts | 116° |
| 2026-05-09 00:26 | 30.87893 | 106.37434 | 36289 ft | 541 kts | 121° |
| 2026-05-09 00:26 | 30.86108 | 106.41226 | 36478 ft | 539 kts | 128° |
| 2026-05-09 00:27 | 30.84010 | 106.44859 | 36660 ft | 535 kts | 134° |
| 2026-05-09 00:27 | 30.81669 | 106.48202 | 36912 ft | 529 kts | 140° |
| 2026-05-09 00:27 | 30.79061 | 106.51302 | 37148 ft | 523 kts | 145° |
| 2026-05-09 00:27 | 30.76369 | 106.54105 | 37271 ft | 519 kts | 149° |
| 2026-05-09 00:28 | 30.73622 | 106.56806 | 37268 ft | 518 kts | 149° |
| 2026-05-09 00:28 | 30.68044 | 106.62267 | 37271 ft | 521 kts | 149° |
| 2026-05-09 00:29 | 30.62593 | 106.67792 | 37267 ft | 521 kts | 148° |
| 2026-05-09 00:29 | 30.57162 | 106.73495 | 37265 ft | 521 kts | 147° |
| 2026-05-09 00:30 | 30.52024 | 106.79004 | 37259 ft | 522 kts | 146° |
| 2026-05-09 00:30 | 30.46656 | 106.84788 | 37274 ft | 525 kts | 146° |
| 2026-05-09 00:31 | 30.41317 | 106.90549 | 37263 ft | 523 kts | 146° |
| 2026-05-09 00:31 | 30.35991 | 106.96289 | 37262 ft | 523 kts | 147° |
| 2026-05-09 00:32 | 30.30615 | 107.01975 | 37267 ft | 522 kts | 148° |
| 2026-05-09 00:32 | 30.25145 | 107.07587 | 37271 ft | 522 kts | 148° |
| 2026-05-09 00:33 | 30.19714 | 107.13115 | 37269 ft | 524 kts | 148° |
| 2026-05-09 00:33 | 30.14223 | 107.18709 | 37271 ft | 523 kts | 148° |
| 2026-05-09 00:34 | 30.08832 | 107.24452 | 37266 ft | 524 kts | 145° |
| 2026-05-09 00:34 | 30.03600 | 107.30388 | 37273 ft | 530 kts | 143° |
| 2026-05-09 00:35 | 29.99097 | 107.37264 | 37276 ft | 550 kts | 124° |
| 2026-05-09 00:35 | 29.95904 | 107.45403 | 37271 ft | 559 kts | 114° |
| 2026-05-09 00:36 | 29.93471 | 107.53927 | 37279 ft | 560 kts | 109° |
| 2026-05-09 00:36 | 29.91468 | 107.62601 | 37270 ft | 563 kts | 100° |
| 2026-05-09 00:37 | 29.91219 | 107.71620 | 37284 ft | 564 kts | 84° |
| 2026-05-09 00:37 | 29.92347 | 107.80595 | 37283 ft | 561 kts | 74° |
| 2026-05-09 00:38 | 29.94443 | 107.89260 | 37290 ft | 557 kts | 68° |
| 2026-05-09 00:38 | 29.96817 | 107.97729 | 37298 ft | 558 kts | 68° |
| 2026-05-09 00:39 | 29.99184 | 108.06310 | 37300 ft | 559 kts | 68° |
| 2026-05-09 00:39 | 30.01429 | 108.14912 | 37299 ft | 556 kts | 69° |
| 2026-05-09 00:40 | 30.03590 | 108.23493 | 37301 ft | 557 kts | 70° |
| 2026-05-09 00:40 | 30.05729 | 108.32104 | 37299 ft | 559 kts | 70° |
| 2026-05-09 00:41 | 30.08909 | 108.44961 | 37310 ft | 559 kts | 70° |
| 2026-05-09 00:41 | 30.11050 | 108.53624 | 37302 ft | 557 kts | 69° |
| 2026-05-09 00:42 | 30.13272 | 108.62212 | 37311 ft | 556 kts | 67° |
| 2026-05-09 00:42 | 30.15744 | 108.70670 | 37312 ft | 554 kts | 65° |
| 2026-05-09 00:43 | 30.18286 | 108.79096 | 37310 ft | 554 kts | 65° |
| 2026-05-09 00:43 | 30.20791 | 108.87500 | 37311 ft | 556 kts | 66° |
| 2026-05-09 00:44 | 30.23258 | 108.96016 | 37313 ft | 553 kts | 68° |
| 2026-05-09 00:44 | 30.25450 | 109.04604 | 37308 ft | 556 kts | 70° |
| 2026-05-09 00:45 | 30.27516 | 109.13296 | 37313 ft | 557 kts | 71° |
| 2026-05-09 00:45 | 30.29539 | 109.21896 | 37301 ft | 553 kts | 70° |
| 2026-05-09 00:46 | 30.31606 | 109.30529 | 37311 ft | 557 kts | 69° |
| 2026-05-09 00:46 | 30.33677 | 109.39086 | 37302 ft | 554 kts | 69° |
| 2026-05-09 00:47 | 30.35749 | 109.47591 | 37299 ft | 557 kts | 70° |
| 2026-05-09 00:47 | 30.37850 | 109.56242 | 37299 ft | 556 kts | 69° |
| 2026-05-09 00:48 | 30.39741 | 109.64893 | 37307 ft | 556 kts | 75° |
| 2026-05-09 00:48 | 30.41112 | 109.73704 | 37306 ft | 557 kts | 77° |
| 2026-05-09 00:49 | 30.42313 | 109.82622 | 37302 ft | 559 kts | 78° |
| 2026-05-09 00:49 | 30.43522 | 109.91577 | 37301 ft | 557 kts | 77° |
| 2026-05-09 00:50 | 30.44754 | 110.00403 | 37305 ft | 557 kts | 77° |
| 2026-05-09 00:50 | 30.46027 | 110.09320 | 37302 ft | 557 kts | 77° |
| 2026-05-09 00:51 | 30.47295 | 110.18121 | 37299 ft | 556 kts | 77° |
| 2026-05-09 00:51 | 30.48578 | 110.27035 | 37305 ft | 558 kts | 77° |
| 2026-05-09 00:52 | 30.49840 | 110.35884 | 37309 ft | 554 kts | 77° |
| 2026-05-09 00:52 | 30.51097 | 110.44758 | 37318 ft | 556 kts | 77° |
| 2026-05-09 00:53 | 30.52347 | 110.53621 | 37330 ft | 554 kts | 77° |
| 2026-05-09 00:53 | 30.53589 | 110.62476 | 37335 ft | 554 kts | 77° |
| 2026-05-09 00:54 | 30.54828 | 110.71326 | 37324 ft | 553 kts | 77° |
| 2026-05-09 00:54 | 30.56064 | 110.80186 | 37319 ft | 556 kts | 77° |
| 2026-05-09 00:55 | 30.57281 | 110.88998 | 37302 ft | 552 kts | 78° |
| 2026-05-09 00:55 | 30.58493 | 110.97810 | 37296 ft | 551 kts | 77° |
| 2026-05-09 00:56 | 30.59695 | 111.06580 | 37274 ft | 552 kts | 78° |
| 2026-05-09 00:56 | 30.60901 | 111.15431 | 37268 ft | 550 kts | 77° |
| 2026-05-09 00:57 | 30.62094 | 111.24264 | 37262 ft | 553 kts | 77° |
| 2026-05-09 00:57 | 30.63275 | 111.33081 | 37249 ft | 549 kts | 77° |
| 2026-05-09 00:58 | 30.64446 | 111.41830 | 37237 ft | 549 kts | 77° |
| 2026-05-09 00:58 | 30.65531 | 111.50684 | 37233 ft | 553 kts | 81° |
| 2026-05-09 00:59 | 30.66112 | 111.59551 | 37228 ft | 552 kts | 84° |
| 2026-05-09 00:59 | 30.66472 | 111.68501 | 37221 ft | 552 kts | 86° |
| 2026-05-09 01:00 | 30.66820 | 111.77412 | 37234 ft | 552 kts | 85° |
| 2026-05-09 01:00 | 30.67213 | 111.86367 | 37228 ft | 554 kts | 85° |
| 2026-05-09 01:01 | 30.67638 | 111.95283 | 37221 ft | 551 kts | 84° |
| 2026-05-09 01:01 | 30.68137 | 112.04137 | 37222 ft | 551 kts | 83° |
| 2026-05-09 01:02 | 30.68763 | 112.12999 | 37215 ft | 550 kts | 83° |
| 2026-05-09 01:02 | 30.69412 | 112.21892 | 37224 ft | 551 kts | 82° |
| 2026-05-09 01:03 | 30.70038 | 112.30774 | 37220 ft | 550 kts | 82° |
| 2026-05-09 01:03 | 30.70636 | 112.39630 | 37222 ft | 550 kts | 82° |
| 2026-05-09 01:04 | 30.71222 | 112.48512 | 37218 ft | 551 kts | 82° |
| 2026-05-09 01:04 | 30.71798 | 112.57391 | 37206 ft | 547 kts | 83° |
| 2026-05-09 01:05 | 30.72368 | 112.66241 | 37217 ft | 550 kts | 84° |
| 2026-05-09 01:06 | 30.72747 | 112.72198 | 37215 ft | 549 kts | 84° |
| 2026-05-09 01:06 | 30.73306 | 112.81081 | 37220 ft | 553 kts | 83° |
| 2026-05-09 01:07 | 30.73862 | 112.89981 | 37222 ft | 549 kts | 83° |
| 2026-05-09 01:07 | 30.74411 | 112.98837 | 37210 ft | 547 kts | 83° |
| 2026-05-09 01:08 | 30.74939 | 113.07479 | 37221 ft | 552 kts | 83° |
| 2026-05-09 01:08 | 30.75460 | 113.16320 | 37219 ft | 547 kts | 84° |
| 2026-05-09 01:09 | 30.75781 | 113.25191 | 37216 ft | 548 kts | 85° |
| 2026-05-09 01:09 | 30.75959 | 113.34021 | 37218 ft | 550 kts | 87° |
| 2026-05-09 01:10 | 30.76123 | 113.42939 | 37212 ft | 548 kts | 86° |
| 2026-05-09 01:10 | 30.76304 | 113.51756 | 37222 ft | 549 kts | 86° |
| 2026-05-09 01:11 | 30.76501 | 113.60719 | 37206 ft | 548 kts | 85° |
| 2026-05-09 01:11 | 30.76680 | 113.68608 | 37215 ft | 547 kts | 86° |
| 2026-05-09 01:12 | 30.76882 | 113.77479 | 37220 ft | 549 kts | 86° |
| 2026-05-09 01:12 | 30.77079 | 113.86348 | 37214 ft | 549 kts | 86° |
| 2026-05-09 01:13 | 30.77268 | 113.95250 | 37217 ft | 548 kts | 86° |
| 2026-05-09 01:13 | 30.77457 | 114.04127 | 37219 ft | 549 kts | 85° |
| 2026-05-09 01:14 | 30.77772 | 114.12980 | 37186 ft | 548 kts | 84° |
| 2026-05-09 01:14 | 30.78067 | 114.17413 | 36922 ft | 544 kts | 78° |
| 2026-05-09 01:14 | 30.78817 | 114.21693 | 36663 ft | 534 kts | 70° |
| 2026-05-09 01:14 | 30.79874 | 114.25787 | 36415 ft | 527 kts | 66° |
| 2026-05-09 01:15 | 30.81093 | 114.29811 | 36146 ft | 523 kts | 63° |
| 2026-05-09 01:15 | 30.82367 | 114.33734 | 35897 ft | 520 kts | 63° |
| 2026-05-09 01:15 | 30.83626 | 114.37705 | 35637 ft | 522 kts | 66° |
| 2026-05-09 01:15 | 30.84495 | 114.41784 | 35380 ft | 526 kts | 79° |
| 2026-05-09 01:16 | 30.84509 | 114.46075 | 35111 ft | 528 kts | 96° |
| 2026-05-09 01:16 | 30.83664 | 114.50201 | 34878 ft | 528 kts | 110° |
| 2026-05-09 01:16 | 30.82158 | 114.54076 | 34618 ft | 527 kts | 120° |
| 2026-05-09 01:17 | 30.78455 | 114.61411 | 34082 ft | 525 kts | 123° |
| 2026-05-09 01:17 | 30.76545 | 114.65028 | 33826 ft | 521 kts | 124° |
| 2026-05-09 01:17 | 30.74666 | 114.68553 | 33542 ft | 519 kts | 124° |
| 2026-05-09 01:17 | 30.72743 | 114.72144 | 33296 ft | 519 kts | 124° |
| 2026-05-09 01:18 | 30.70836 | 114.75699 | 33030 ft | 519 kts | 124° |
| 2026-05-09 01:18 | 30.68912 | 114.79284 | 32749 ft | 520 kts | 124° |
| 2026-05-09 01:18 | 30.67002 | 114.82845 | 32481 ft | 521 kts | 124° |
| 2026-05-09 01:18 | 30.65106 | 114.86385 | 32230 ft | 521 kts | 124° |
| 2026-05-09 01:19 | 30.63155 | 114.90027 | 31955 ft | 519 kts | 124° |
| 2026-05-09 01:19 | 30.61266 | 114.93552 | 31695 ft | 520 kts | 124° |
| 2026-05-09 01:19 | 30.59357 | 114.97113 | 31454 ft | 522 kts | 123° |
| 2026-05-09 01:19 | 30.57432 | 115.00704 | 31172 ft | 520 kts | 124° |
| 2026-05-09 01:20 | 30.55517 | 115.04273 | 30920 ft | 518 kts | 124° |
| 2026-05-09 01:20 | 30.53626 | 115.07793 | 30671 ft | 517 kts | 123° |
| 2026-05-09 01:20 | 30.51731 | 115.11319 | 30413 ft | 518 kts | 124° |
| 2026-05-09 01:20 | 30.49814 | 115.14885 | 30163 ft | 516 kts | 123° |
| 2026-05-09 01:21 | 30.47939 | 115.18363 | 29911 ft | 514 kts | 124° |
| 2026-05-09 01:21 | 30.45899 | 115.21849 | 29651 ft | 514 kts | 128° |
| 2026-05-09 01:21 | 30.43625 | 115.24899 | 29398 ft | 509 kts | 139° |
| 2026-05-09 01:21 | 30.40885 | 115.27364 | 29144 ft | 502 kts | 152° |
| 2026-05-09 01:22 | 30.37784 | 115.29250 | 28890 ft | 499 kts | 159° |
| 2026-05-09 01:22 | 30.34565 | 115.30843 | 28628 ft | 498 kts | 162° |
| 2026-05-09 01:22 | 30.31330 | 115.32315 | 28362 ft | 496 kts | 163° |
| 2026-05-09 01:22 | 30.28113 | 115.33717 | 28101 ft | 493 kts | 163° |
| 2026-05-09 01:23 | 30.24875 | 115.35106 | 27838 ft | 490 kts | 163° |
| 2026-05-09 01:23 | 30.21693 | 115.36466 | 27578 ft | 489 kts | 164° |
| 2026-05-09 01:23 | 30.18494 | 115.37840 | 27318 ft | 487 kts | 163° |
| 2026-05-09 01:23 | 30.15356 | 115.39195 | 27062 ft | 484 kts | 163° |
| 2026-05-09 01:24 | 30.12161 | 115.40585 | 26802 ft | 483 kts | 163° |
| 2026-05-09 01:24 | 30.09058 | 115.41941 | 26543 ft | 481 kts | 163° |
| 2026-05-09 01:24 | 30.05894 | 115.43328 | 26279 ft | 480 kts | 163° |
| 2026-05-09 01:24 | 30.02789 | 115.44693 | 26027 ft | 479 kts | 163° |
| 2026-05-09 01:25 | 29.99682 | 115.46062 | 25768 ft | 477 kts | 163° |
| 2026-05-09 01:25 | 29.96577 | 115.47431 | 25507 ft | 473 kts | 163° |
| 2026-05-09 01:25 | 29.93499 | 115.48788 | 25251 ft | 472 kts | 163° |
| 2026-05-09 01:25 | 29.90430 | 115.50140 | 24995 ft | 471 kts | 163° |
| 2026-05-09 01:26 | 29.87503 | 115.51428 | 24749 ft | 468 kts | 163° |
| 2026-05-09 01:26 | 29.84455 | 115.52769 | 24492 ft | 466 kts | 163° |
| 2026-05-09 01:26 | 29.81425 | 115.54102 | 24232 ft | 466 kts | 163° |
| 2026-05-09 01:26 | 29.78386 | 115.55437 | 23980 ft | 464 kts | 163° |
| 2026-05-09 01:27 | 29.75394 | 115.56750 | 23733 ft | 462 kts | 163° |
| 2026-05-09 01:27 | 29.72360 | 115.58079 | 23486 ft | 459 kts | 163° |
| 2026-05-09 01:27 | 29.69390 | 115.59380 | 23242 ft | 458 kts | 163° |
| 2026-05-09 01:27 | 29.66393 | 115.60693 | 22998 ft | 456 kts | 163° |
| 2026-05-09 01:28 | 29.63467 | 115.61972 | 22759 ft | 454 kts | 163° |
| 2026-05-09 01:28 | 29.60492 | 115.63274 | 22517 ft | 450 kts | 163° |
| 2026-05-09 01:28 | 29.57571 | 115.64551 | 22281 ft | 449 kts | 163° |
| 2026-05-09 01:28 | 29.54659 | 115.65824 | 22045 ft | 448 kts | 164° |
| 2026-05-09 01:29 | 29.51751 | 115.67097 | 21809 ft | 446 kts | 164° |
| 2026-05-09 01:29 | 29.48837 | 115.68372 | 21572 ft | 443 kts | 164° |
| 2026-05-09 01:29 | 29.45983 | 115.69623 | 21230 ft | 436 kts | 164° |
| 2026-05-09 01:29 | 29.43152 | 115.70865 | 20826 ft | 429 kts | 164° |
| 2026-05-09 01:30 | 29.40400 | 115.72070 | 20344 ft | 423 kts | 164° |
| 2026-05-09 01:30 | 29.37657 | 115.73270 | 19844 ft | 419 kts | 164° |
| 2026-05-09 01:30 | 29.34950 | 115.74451 | 19346 ft | 414 kts | 164° |
| 2026-05-09 01:30 | 29.32261 | 115.75608 | 18848 ft | 409 kts | 165° |
| 2026-05-09 01:31 | 29.29565 | 115.76649 | 18348 ft | 403 kts | 167° |
| 2026-05-09 01:31 | 29.26904 | 115.77583 | 17859 ft | 398 kts | 168° |
| 2026-05-09 01:31 | 29.24260 | 115.78471 | 17384 ft | 393 kts | 168° |
| 2026-05-09 01:31 | 29.21658 | 115.79340 | 16901 ft | 389 kts | 168° |
| 2026-05-09 01:32 | 29.19043 | 115.80219 | 16420 ft | 384 kts | 168° |
| 2026-05-09 01:32 | 29.16495 | 115.81082 | 15946 ft | 380 kts | 168° |
| 2026-05-09 01:32 | 29.13957 | 115.81949 | 15476 ft | 376 kts | 168° |
| 2026-05-09 01:32 | 29.11451 | 115.82629 | 15022 ft | 367 kts | 176° |
| 2026-05-09 01:33 | 29.08929 | 115.82658 | 14562 ft | 353 kts | 194° |
| 2026-05-09 01:33 | 29.06638 | 115.81869 | 14133 ft | 342 kts | 206° |
| 2026-05-09 01:33 | 29.04476 | 115.80808 | 13690 ft | 327 kts | 208° |
| 2026-05-09 01:33 | 29.02464 | 115.79778 | 13270 ft | 313 kts | 208° |
| 2026-05-09 01:34 | 29.00500 | 115.78787 | 12858 ft | 300 kts | 208° |
| 2026-05-09 01:34 | 28.98627 | 115.77858 | 12498 ft | 289 kts | 207° |
| 2026-05-09 01:34 | 28.96796 | 115.76962 | 12116 ft | 278 kts | 207° |
| 2026-05-09 01:34 | 28.95037 | 115.76107 | 11780 ft | 276 kts | 207° |
| 2026-05-09 01:35 | 28.93232 | 115.75230 | 11412 ft | 283 kts | 207° |
| 2026-05-09 01:35 | 28.91424 | 115.74361 | 11044 ft | 276 kts | 206° |
| 2026-05-09 01:35 | 28.89671 | 115.73522 | 10684 ft | 271 kts | 206° |
| 2026-05-09 01:35 | 28.87929 | 115.72684 | 10422 ft | 267 kts | 206° |
| 2026-05-09 01:36 | 28.86238 | 115.71864 | 10167 ft | 261 kts | 206° |
| 2026-05-09 01:36 | 28.84572 | 115.71053 | 9911 ft | 256 kts | 206° |
| 2026-05-09 01:36 | 28.82949 | 115.70264 | 9735 ft | 249 kts | 206° |
| 2026-05-09 01:36 | 28.81365 | 115.69498 | 9496 ft | 245 kts | 206° |
| 2026-05-09 01:37 | 28.79796 | 115.68740 | 9178 ft | 244 kts | 206° |
| 2026-05-09 01:37 | 28.78236 | 115.67989 | 8881 ft | 242 kts | 206° |
| 2026-05-09 01:37 | 28.76692 | 115.67245 | 8587 ft | 241 kts | 205° |
| 2026-05-09 01:37 | 28.75125 | 115.66492 | 8287 ft | 240 kts | 205° |
| 2026-05-09 01:38 | 28.73594 | 115.65756 | 8011 ft | 238 kts | 205° |
| 2026-05-09 01:38 | 28.72071 | 115.65025 | 7725 ft | 237 kts | 205° |
| 2026-05-09 01:38 | 28.70554 | 115.64302 | 7433 ft | 236 kts | 205° |
| 2026-05-09 01:38 | 28.69037 | 115.63581 | 7144 ft | 234 kts | 204° |
| 2026-05-09 01:39 | 28.67482 | 115.63002 | 6859 ft | 234 kts | 190° |
| 2026-05-09 01:39 | 28.65872 | 115.63152 | 6582 ft | 236 kts | 156° |
| 2026-05-09 01:39 | 28.64576 | 115.64283 | 6319 ft | 236 kts | 126° |
| 2026-05-09 01:39 | 28.63812 | 115.65919 | 6053 ft | 233 kts | 112° |
| 2026-05-09 01:40 | 28.63203 | 115.67606 | 5768 ft | 232 kts | 111° |
| 2026-05-09 01:40 | 28.62734 | 115.69370 | 5511 ft | 230 kts | 95° |
| 2026-05-09 01:40 | 28.62941 | 115.71127 | 5289 ft | 226 kts | 68° |
| 2026-05-09 01:40 | 28.63617 | 115.72744 | 5006 ft | 227 kts | 62° |
| 2026-05-09 01:41 | 28.64313 | 115.74340 | 4735 ft | 225 kts | 64° |
| 2026-05-09 01:41 | 28.64949 | 115.75951 | 4563 ft | 221 kts | 66° |
| 2026-05-09 01:41 | 28.65558 | 115.77573 | 4399 ft | 219 kts | 67° |
| 2026-05-09 01:41 | 28.66146 | 115.79157 | 4189 ft | 214 kts | 66° |
| 2026-05-09 01:42 | 28.66915 | 115.80562 | 3972 ft | 207 kts | 44° |
| 2026-05-09 01:42 | 28.68129 | 115.81432 | 3696 ft | 206 kts | 25° |
| 2026-05-09 01:42 | 28.69436 | 115.82063 | 3420 ft | 202 kts | 24° |
| 2026-05-09 01:42 | 28.70706 | 115.82673 | 3145 ft | 195 kts | 24° |
| 2026-05-09 01:43 | 28.71931 | 115.83264 | 2979 ft | 183 kts | 24° |
| 2026-05-09 01:43 | 28.73075 | 115.83813 | 2768 ft | 174 kts | 24° |
| 2026-05-09 01:43 | 28.74151 | 115.84330 | 2448 ft | 161 kts | 24° |
| 2026-05-09 01:43 | 28.75145 | 115.84807 | 2256 ft | 150 kts | 24° |
| 2026-05-09 01:44 | 28.76106 | 115.85271 | 2066 ft | 150 kts | 24° |
| 2026-05-09 01:44 | 28.77064 | 115.85731 | 1867 ft | 150 kts | 24° |
| 2026-05-09 01:44 | 28.78025 | 115.86193 | 1664 ft | 149 kts | 24° |
| 2026-05-09 01:44 | 28.78990 | 115.86657 | 1457 ft | 149 kts | 24° |
| 2026-05-09 01:45 | 28.79936 | 115.87112 | 1260 ft | 147 kts | 24° |
| 2026-05-09 01:45 | 28.80896 | 115.87574 | 1063 ft | 148 kts | 24° |
| 2026-05-09 01:45 | 28.81837 | 115.88025 | 866 ft | 147 kts | 24° |
| 2026-05-09 01:45 | 28.82784 | 115.88484 | 658 ft | 147 kts | 24° |
| 2026-05-09 01:46 | 28.83729 | 115.88937 | 412 ft | 147 kts | 23° |
| 2026-05-09 01:46 | 28.84681 | 115.89384 | 237 ft | 145 kts | 23° |
| 2026-05-09 01:46 | 28.85529 | 115.89806 | 152 ft | 122 kts | 23° |
| 2026-05-09 01:46 | 28.85808 | 115.89934 | 152 ft | 17 kts | 23° |
| 2026-05-09 01:47 | 28.85952 | 115.90003 | 152 ft | 27 kts | 23° |
| 2026-05-09 01:47 | 28.86144 | 115.90093 | 152 ft | 29 kts | 22° |
| 2026-05-09 01:47 | 28.86331 | 115.90185 | 152 ft | 27 kts | 23° |
| 2026-05-09 01:47 | 28.86473 | 115.90273 | 152 ft | 17 kts | 41° |
| 2026-05-09 01:48 | 28.86553 | 115.90366 | 152 ft | 15 kts | 52° |
| 2026-05-09 01:48 | 28.86610 | 115.90462 | 152 ft | 13 kts | 86° |
| 2026-05-09 01:48 | 28.86547 | 115.90495 | 152 ft | 11 kts | 191° |
| 2026-05-09 01:48 | 28.86473 | 115.90464 | 152 ft | 11 kts | 202° |
| 2026-05-09 01:49 | 28.86405 | 115.90466 | 152 ft | 10 kts | 124° |
| 2026-05-09 01:49 | 28.86382 | 115.90542 | 152 ft | 9 kts | 112° |
| 2026-05-09 01:49 | 28.86355 | 115.90614 | 152 ft | 9 kts | 112° |
| 2026-05-09 01:49 | 28.86314 | 115.90662 | 152 ft | 9 kts | 176° |
| 2026-05-09 01:50 | 28.86254 | 115.90643 | 152 ft | 8 kts | 201° |
| 2026-05-09 01:50 | 28.86199 | 115.90617 | 152 ft | 8 kts | 202° |
| 2026-05-09 01:50 | 28.86146 | 115.90608 | 152 ft | 7 kts | 141° |
| 2026-05-09 01:50 | 28.86124 | 115.90659 | 152 ft | 6 kts | 114° |
| 2026-05-09 01:51 | 28.86117 | 115.90678 | 152 ft | 0 kts | 113° |